createdAt,value
2018-07-07T00:00:20.786Z,45.00
2018-07-07T00:02:49.864Z,45.50
2018-07-07T00:05:18.959Z,46.20
2018-07-07T00:07:48.017Z,46.50
2018-07-07T00:15:17.644Z,44.40
2018-07-07T00:17:47.203Z,42.50
2018-07-07T00:20:16.895Z,41.00
2018-07-07T00:25:17.376Z,39.00
2018-07-07T00:27:47.080Z,39.30
2018-07-07T00:30:16.706Z,39.30
2018-07-07T00:32:45.767Z,39.70
2018-07-07T00:35:14.884Z,39.90
2018-07-07T00:37:43.958Z,40.60
2018-07-07T00:40:13.050Z,41.00
2018-07-07T00:42:42.099Z,41.70
2018-07-07T00:45:11.181Z,42.10
2018-07-07T00:47:40.244Z,42.80
2018-07-07T00:50:09.320Z,43.30
2018-07-07T00:52:38.380Z,43.90
2018-07-07T00:55:07.460Z,44.30
2018-07-07T00:57:36.525Z,44.90
2018-07-07T01:00:05.607Z,45.20
2018-07-07T01:05:03.367Z,45.90
2018-07-07T01:07:32.420Z,46.20
2018-07-07T01:10:01.488Z,46.50
2018-07-07T01:12:30.535Z,47.00
2018-07-07T01:14:59.600Z,47.40
2018-07-07T01:17:28.648Z,47.90
2018-07-07T01:19:57.711Z,48.20
2018-07-07T01:22:26.762Z,48.70
2018-07-07T01:24:55.856Z,49.10
2018-07-07T01:27:24.905Z,49.40
2018-07-07T01:29:53.968Z,49.70
2018-07-07T01:32:23.107Z,50.30
2018-07-07T01:34:52.184Z,50.90
2018-07-07T01:37:21.231Z,51.80
2018-07-07T01:42:18.990Z,53.50
2018-07-07T01:44:48.064Z,54.00
2018-07-07T01:47:17.107Z,54.70
2018-07-07T01:49:46.184Z,55.30
2018-07-07T01:52:15.231Z,55.80
2018-07-07T01:54:44.316Z,56.20
2018-07-07T01:57:13.363Z,56.90
2018-07-07T01:59:42.445Z,57.30
2018-07-07T02:02:11.487Z,57.40
2018-07-07T02:04:40.576Z,58.40
2018-07-07T02:07:09.615Z,58.40
2018-07-07T02:09:38.679Z,59.00
2018-07-07T02:12:07.727Z,59.10
2018-07-07T02:14:36.808Z,59.40
2018-07-07T02:17:05.923Z,59.60
2018-07-07T02:19:35.003Z,59.70
2018-07-07T02:22:04.072Z,59.70
2018-07-07T02:24:33.146Z,59.60
2018-07-07T02:29:30.903Z,59.10
2018-07-07T02:31:59.952Z,59.50
2018-07-07T02:34:29.019Z,59.90
2018-07-07T02:36:58.092Z,60.10
2018-07-07T02:39:27.139Z,60.60
2018-07-07T02:41:56.212Z,61.10
2018-07-07T02:46:53.954Z,62.30
2018-07-07T02:49:23.013Z,62.80
2018-07-07T02:51:52.083Z,63.80
2018-07-07T02:54:21.132Z,64.20
2018-07-07T02:56:50.204Z,64.60
2018-07-07T02:59:19.252Z,64.90
2018-07-07T03:01:48.323Z,65.40
2018-07-07T03:04:17.416Z,65.60
2018-07-07T03:06:46.509Z,65.90
2018-07-07T03:09:15.679Z,66.80
2018-07-07T03:11:44.747Z,67.30
2018-07-07T03:16:42.505Z,68.20
2018-07-07T03:19:11.555Z,68.50
2018-07-07T03:21:40.637Z,69.20
2018-07-07T03:24:09.691Z,69.50
2018-07-07T03:26:38.759Z,70.80
2018-07-07T03:29:07.816Z,71.10
2018-07-07T03:31:36.892Z,71.60
2018-07-07T03:34:06.112Z,72.30
2018-07-07T03:39:04.553Z,73.30
2018-07-07T03:41:33.633Z,73.40
2018-07-07T03:44:02.727Z,73.70
2018-07-07T03:46:31.808Z,74.40
2018-07-07T03:49:00.867Z,74.50
2018-07-07T03:51:29.949Z,74.80
2018-07-07T03:53:59.000Z,74.80
2018-07-07T03:56:28.071Z,74.90
2018-07-07T03:58:57.163Z,75.10
2018-07-07T04:01:26.564Z,75.10
2018-07-07T04:03:55.617Z,75.10
2018-07-07T04:06:24.720Z,74.60
2018-07-07T04:08:53.768Z,74.60
2018-07-07T04:13:51.585Z,74.80
2018-07-07T04:16:20.665Z,74.90
2018-07-07T04:18:49.709Z,74.80
2018-07-07T04:21:18.783Z,74.80
2018-07-07T04:23:47.835Z,74.70
2018-07-07T04:26:16.909Z,74.50
2018-07-07T04:28:45.972Z,74.70
2018-07-07T04:31:15.045Z,74.70
2018-07-07T04:33:44.101Z,74.60
2018-07-07T04:36:13.171Z,74.70
2018-07-07T04:38:42.229Z,74.30
2018-07-07T04:41:11.304Z,74.30
2018-07-07T04:46:09.055Z,74.30
2018-07-07T04:48:38.116Z,74.40
2018-07-07T04:51:07.193Z,74.50
2018-07-07T04:53:36.263Z,74.60
2018-07-07T04:56:05.716Z,74.50
2018-07-07T04:58:34.768Z,74.50
2018-07-07T05:01:03.856Z,74.40
2018-07-07T05:03:32.915Z,74.20
2018-07-07T05:06:02.004Z,74.00
2018-07-07T05:08:31.054Z,73.70
2018-07-07T05:13:28.808Z,74.30
2018-07-07T05:15:57.883Z,73.40
2018-07-07T05:18:26.935Z,73.30
2018-07-07T05:25:53.348Z,72.70
2018-07-07T05:28:22.424Z,72.50
2018-07-07T05:30:51.524Z,72.40
2018-07-07T05:33:20.598Z,72.60
2018-07-07T05:38:18.404Z,72.50
2018-07-07T05:40:47.471Z,72.50
2018-07-07T05:45:46.229Z,72.80
2018-07-07T05:48:15.299Z,71.70
2018-07-07T05:50:44.355Z,71.30
2018-07-07T05:53:13.427Z,71.10
2018-07-07T05:55:42.538Z,70.60
2018-07-07T05:58:11.616Z,70.70
2018-07-07T06:00:40.682Z,70.50
2018-07-07T06:03:09.780Z,69.70
2018-07-07T06:05:38.871Z,69.20
2018-07-07T06:08:07.948Z,69.10
2018-07-07T06:13:05.871Z,68.40
2018-07-07T06:15:34.952Z,68.40
2018-07-07T06:18:04.027Z,68.00
2018-07-07T06:20:33.087Z,67.30
2018-07-07T06:23:02.172Z,67.30
2018-07-07T06:25:31.236Z,67.10
2018-07-07T06:28:00.567Z,66.90
2018-07-07T06:30:29.638Z,67.20
2018-07-07T06:32:58.717Z,66.00
2018-07-07T06:35:27.939Z,64.30
2018-07-07T06:37:57.019Z,65.00
2018-07-07T06:42:54.781Z,64.00
2018-07-07T06:45:23.977Z,63.80
2018-07-07T06:47:53.083Z,62.70
2018-07-07T06:52:50.830Z,62.10
2018-07-07T06:55:19.896Z,61.60
2018-07-07T06:57:48.964Z,61.70
2018-07-07T07:00:18.024Z,60.30
2018-07-07T07:02:47.109Z,59.10
2018-07-07T07:05:16.175Z,58.40
2018-07-07T07:07:45.248Z,57.60
2018-07-07T07:12:42.991Z,56.80
2018-07-07T07:15:12.040Z,57.00
2018-07-07T07:17:41.112Z,56.30
2018-07-07T07:22:38.852Z,54.50
2018-07-07T07:25:07.959Z,53.60
2018-07-07T07:27:37.030Z,52.60
2018-07-07T07:30:06.177Z,51.60
2018-07-07T07:32:35.252Z,52.50
2018-07-07T07:35:04.303Z,52.50
2018-07-07T07:37:33.384Z,52.50
2018-07-07T07:40:02.670Z,52.40
2018-07-07T07:42:31.736Z,52.30
2018-07-07T07:45:00.871Z,51.50
2018-07-07T07:47:29.939Z,51.90
2018-07-07T07:49:59.004Z,49.40
2018-07-07T07:52:28.087Z,47.80
2018-07-07T07:54:57.185Z,48.20
2018-07-07T07:57:26.610Z,46.90
2018-07-07T07:59:55.727Z,48.70
2018-07-07T08:02:24.799Z,49.20
2018-07-07T08:04:53.894Z,48.50
2018-07-07T08:07:22.966Z,47.40
2018-07-07T08:09:52.027Z,47.90
2018-07-07T08:12:21.126Z,47.70
2018-07-07T08:14:50.524Z,49.00
2018-07-07T08:17:19.567Z,49.40
2018-07-07T08:19:48.652Z,49.00
2018-07-07T08:22:17.964Z,49.30
2018-07-07T08:24:47.031Z,48.40
2018-07-07T08:29:45.007Z,45.50
2018-07-07T08:32:14.060Z,46.00
2018-07-07T08:34:43.128Z,46.30
2018-07-07T08:37:12.177Z,45.70
2018-07-07T08:39:41.251Z,44.00
2018-07-07T08:42:10.365Z,43.70
2018-07-07T08:44:39.405Z,43.10
2018-07-07T08:47:08.452Z,44.50
2018-07-07T08:49:37.531Z,44.90
2018-07-07T08:52:06.579Z,46.40
2018-07-07T08:54:35.657Z,46.70
2018-07-07T08:57:04.983Z,48.40
2018-07-07T09:02:02.723Z,47.90
2018-07-07T09:04:31.816Z,45.60
2018-07-07T09:07:00.867Z,46.40
2018-07-07T09:09:29.940Z,47.20
2018-07-07T09:11:58.992Z,45.80
2018-07-07T09:14:28.069Z,46.90
2018-07-07T09:16:57.119Z,46.50
2018-07-07T09:19:26.193Z,46.70
2018-07-07T09:21:55.247Z,46.30
2018-07-07T09:24:24.321Z,45.90
2018-07-07T09:26:53.376Z,44.90
2018-07-07T09:29:22.447Z,45.00
2018-07-07T09:31:51.503Z,45.50
2018-07-07T09:34:20.571Z,44.40
2018-07-07T09:36:49.629Z,43.70
2018-07-07T09:39:18.706Z,44.10
2018-07-07T09:44:16.511Z,43.70
2018-07-07T09:46:45.560Z,44.10
2018-07-07T09:49:14.637Z,44.00
2018-07-07T09:51:43.683Z,42.90
2018-07-07T09:54:13.764Z,43.00
2018-07-07T09:56:42.877Z,42.80
2018-07-07T09:59:12.050Z,42.90
2018-07-07T10:01:41.100Z,42.30
2018-07-07T10:04:10.232Z,43.20
2018-07-07T10:06:39.304Z,41.60
2018-07-07T10:09:08.388Z,42.00
2018-07-07T10:11:37.448Z,40.60
2018-07-07T10:14:06.525Z,40.80
2018-07-07T10:16:35.585Z,40.30
2018-07-07T10:19:04.652Z,40.50
2018-07-07T10:21:33.703Z,39.80
2018-07-07T10:24:02.789Z,39.20
2018-07-07T10:26:31.851Z,38.10
2018-07-07T10:29:00.920Z,38.10
2018-07-07T10:31:30.044Z,38.80
2018-07-07T10:33:59.292Z,38.50
2018-07-07T10:36:28.360Z,38.40
2018-07-07T10:38:57.423Z,37.40
2018-07-07T10:43:55.203Z,37.40
2018-07-07T10:46:24.260Z,38.20
2018-07-07T10:48:53.380Z,36.50
2018-07-07T10:51:22.415Z,37.00
2018-07-07T10:53:51.484Z,36.80
2018-07-07T10:56:20.544Z,36.00
2018-07-07T10:58:49.980Z,36.00
2018-07-07T11:01:19.044Z,36.10
2018-07-07T11:03:48.177Z,35.40
2018-07-07T11:06:17.301Z,34.40
2018-07-07T11:08:46.357Z,34.60
2018-07-07T11:11:15.435Z,34.80
2018-07-07T11:13:44.500Z,34.90
2018-07-07T11:16:13.567Z,34.50
2018-07-07T11:21:11.659Z,34.00
2018-07-07T11:26:09.395Z,33.00
2018-07-07T11:28:38.452Z,32.30
2018-07-07T11:31:07.644Z,33.30
2018-07-07T11:38:34.331Z,31.80
2018-07-07T11:41:04.255Z,30.00
2018-07-07T11:43:33.309Z,29.00
2018-07-07T11:46:02.381Z,29.00
2018-07-07T11:48:31.427Z,29.40
2018-07-07T11:51:00.491Z,28.80
2018-07-07T11:53:29.552Z,28.70
2018-07-07T11:55:58.628Z,28.40
2018-07-07T11:58:27.672Z,28.60
2018-07-07T12:00:56.739Z,28.10
2018-07-07T12:03:25.779Z,29.10
2018-07-07T12:05:54.880Z,28.50
2018-07-07T12:13:21.334Z,29.20
2018-07-07T12:15:50.403Z,30.90
2018-07-07T12:18:19.452Z,31.10
2018-07-07T12:23:17.184Z,29.70
2018-07-07T12:25:46.251Z,29.80
2018-07-07T12:28:15.304Z,29.90
2018-07-07T12:30:44.567Z,30.80
2018-07-07T12:33:13.611Z,30.80
2018-07-07T12:35:42.679Z,30.00
2018-07-07T12:38:11.756Z,29.80
2018-07-07T12:40:40.847Z,29.70
2018-07-07T12:43:09.904Z,30.10
2018-07-07T12:48:07.669Z,29.80
2018-07-07T12:50:36.745Z,28.70
2018-07-07T12:53:05.861Z,27.60
2018-07-07T12:55:34.939Z,26.00
2018-07-07T12:58:03.991Z,24.50
2018-07-07T13:00:33.073Z,25.70
2018-07-07T13:03:02.144Z,25.40
2018-07-07T13:05:31.272Z,25.20
2018-07-07T13:08:00.316Z,24.40
2018-07-07T13:10:29.408Z,24.20
2018-07-07T13:12:58.479Z,24.80
2018-07-07T13:15:27.552Z,24.60
2018-07-07T13:25:22.767Z,23.70
2018-07-07T13:27:51.816Z,24.40
2018-07-07T13:30:20.896Z,24.80
2018-07-07T13:32:49.946Z,24.60
2018-07-07T13:35:19.152Z,24.50
2018-07-07T13:40:16.937Z,24.60
2018-07-07T13:42:46.001Z,24.10
2018-07-07T13:45:15.106Z,23.80
2018-07-07T13:47:44.226Z,24.50
2018-07-07T13:50:13.308Z,24.20
2018-07-07T13:52:42.364Z,24.30
2018-07-07T13:55:11.452Z,24.50
2018-07-07T14:00:09.187Z,24.20
2018-07-07T14:02:38.267Z,24.40
2018-07-07T14:05:07.559Z,23.90
2018-07-07T14:07:36.700Z,23.70
2018-07-07T14:10:06.001Z,23.80
2018-07-07T14:12:35.128Z,23.60
2018-07-07T14:15:04.256Z,23.50
2018-07-07T14:17:33.365Z,23.20
2018-07-07T14:20:02.408Z,23.50
2018-07-07T14:22:31.489Z,23.50
2018-07-07T14:25:00.547Z,23.00
2018-07-07T14:27:29.635Z,22.80
2018-07-07T14:29:58.688Z,22.20
2018-07-07T14:32:27.764Z,22.30
2018-07-07T14:34:56.823Z,23.10
2018-07-07T14:37:25.903Z,22.40
2018-07-07T14:39:57.071Z,22.30
2018-07-07T14:42:39.019Z,22.10
2018-07-07T14:45:14.674Z,22.00
2018-07-07T14:47:44.755Z,22.40
2018-07-07T14:50:14.374Z,21.90
2018-07-07T14:52:43.769Z,22.10
2018-07-07T14:55:13.659Z,22.10
2018-07-07T14:57:43.367Z,21.90
2018-07-07T15:00:16.459Z,21.30
2018-07-07T15:02:46.784Z,20.90
2018-07-07T15:05:15.888Z,20.50
2018-07-07T15:07:45.199Z,20.80
2018-07-07T15:10:14.897Z,20.70
2018-07-07T15:12:44.623Z,21.10
2018-07-07T15:15:14.012Z,21.50
2018-07-07T15:17:43.952Z,21.00
2018-07-07T15:20:13.019Z,20.90
2018-07-07T15:22:42.162Z,21.40
2018-07-07T15:25:11.292Z,21.80
2018-07-07T15:30:09.707Z,20.40
2018-07-07T15:32:38.927Z,20.70
2018-07-07T15:35:08.011Z,20.90
2018-07-07T15:37:37.171Z,20.90
2018-07-07T15:42:35.305Z,21.00
2018-07-07T15:45:04.424Z,20.90
2018-07-07T15:47:33.496Z,20.90
2018-07-07T15:50:02.548Z,20.20
2018-07-07T15:52:31.623Z,20.20
2018-07-07T15:55:00.688Z,19.80
2018-07-07T15:57:29.764Z,19.70
2018-07-07T15:59:58.824Z,19.30
2018-07-07T16:02:27.891Z,19.40
2018-07-07T16:04:56.974Z,19.50
2018-07-07T16:07:26.044Z,19.60
2018-07-07T16:09:55.126Z,19.40
2018-07-07T16:12:24.243Z,19.80
2018-07-07T16:14:53.301Z,19.90
2018-07-07T16:17:22.375Z,20.10
2018-07-07T16:19:51.456Z,20.60
2018-07-07T16:22:20.537Z,20.40
2018-07-07T16:24:49.705Z,20.80
2018-07-07T16:29:47.467Z,20.20
2018-07-07T16:32:16.555Z,21.00
2018-07-07T16:34:45.663Z,20.80
2018-07-07T16:37:14.740Z,21.40
2018-07-07T16:39:43.796Z,21.70
2018-07-07T16:42:13.196Z,22.50
2018-07-07T16:44:42.244Z,21.50
2018-07-07T16:47:11.616Z,20.10
2018-07-07T16:49:40.680Z,20.80
2018-07-07T16:52:09.999Z,20.60
2018-07-07T16:54:41.644Z,21.10
2018-07-07T16:57:12.615Z,21.90
2018-07-07T16:59:41.667Z,22.00
2018-07-07T17:04:39.440Z,22.30
2018-07-07T17:07:08.528Z,22.40
2018-07-07T17:09:37.596Z,22.00
2018-07-07T17:12:06.691Z,21.80
2018-07-07T17:14:35.784Z,21.80
2018-07-07T17:17:04.928Z,22.20
2018-07-07T17:22:02.744Z,22.90
2018-07-07T17:24:32.255Z,22.70
2018-07-07T17:27:01.329Z,22.40
2018-07-07T17:34:28.402Z,23.10
2018-07-07T17:36:57.489Z,23.00
2018-07-07T17:39:26.992Z,23.50
2018-07-07T17:41:56.069Z,23.90
2018-07-07T17:44:25.151Z,23.90
2018-07-07T17:46:54.199Z,24.00
2018-07-07T17:51:51.979Z,24.40
2018-07-07T17:54:21.090Z,23.70
2018-07-07T17:56:50.144Z,24.10
2018-07-07T17:59:19.224Z,23.70
2018-07-07T18:01:48.271Z,23.30
2018-07-07T18:04:17.369Z,23.60
2018-07-07T18:06:46.445Z,24.00
2018-07-07T18:09:15.523Z,24.60
2018-07-07T18:11:44.644Z,24.80
2018-07-07T18:14:13.688Z,24.60
2018-07-07T18:16:42.807Z,25.00
2018-07-07T18:19:11.947Z,25.20
2018-07-07T18:21:41.415Z,25.60
2018-07-07T18:24:10.496Z,25.40
2018-07-07T18:26:39.556Z,25.50
2018-07-07T18:29:08.667Z,25.70
2018-07-07T18:31:37.716Z,26.20
2018-07-07T18:34:06.793Z,26.70
2018-07-07T18:36:35.852Z,26.60
2018-07-07T18:39:05.480Z,26.40
2018-07-07T18:41:34.533Z,26.30
2018-07-07T18:46:32.359Z,27.60
2018-07-07T18:49:01.432Z,28.00
2018-07-07T18:51:30.537Z,29.30
2018-07-07T18:53:59.711Z,30.70
2018-07-07T18:58:57.570Z,33.20
2018-07-07T19:01:26.628Z,34.10
2018-07-07T19:03:55.691Z,34.60
2018-07-07T19:06:24.764Z,35.10
2018-07-07T19:08:53.828Z,35.50
2018-07-07T19:11:22.920Z,36.00
2018-07-07T19:13:52.079Z,36.40
2018-07-07T19:16:21.148Z,36.80
2018-07-07T19:18:50.229Z,37.20
2018-07-07T19:21:24.532Z,37.60
2018-07-07T19:23:58.963Z,37.80
2018-07-07T19:26:33.343Z,37.90
2018-07-07T19:29:02.413Z,38.20
2018-07-07T19:34:09.082Z,38.70
2018-07-07T19:39:12.203Z,39.10
2018-07-07T19:41:41.259Z,39.40
2018-07-07T19:44:10.319Z,39.70
2018-07-07T19:46:39.367Z,39.80
2018-07-07T19:49:08.439Z,40.10
2018-07-07T19:51:37.504Z,40.40
2018-07-07T19:54:06.619Z,40.60
2018-07-07T19:56:35.771Z,40.90
2018-07-07T19:59:04.852Z,41.20
2018-07-07T20:01:33.932Z,41.40
2018-07-07T20:04:03.009Z,41.60
2018-07-07T20:06:32.097Z,41.80
2018-07-07T20:09:01.532Z,42.10
2018-07-07T20:11:30.588Z,43.00
2018-07-07T20:16:39.740Z,42.60
2018-07-07T20:19:17.354Z,42.80
2018-07-07T20:21:49.123Z,43.30
2018-07-07T20:24:20.331Z,44.10
2018-07-07T20:26:54.740Z,44.50
2018-07-07T20:29:23.937Z,44.80
2018-07-07T20:31:54.413Z,44.70
2018-07-07T20:34:24.631Z,44.80
2018-07-07T20:36:54.041Z,44.80
2018-07-07T20:39:23.470Z,45.10
2018-07-07T20:41:53.125Z,45.30
2018-07-07T20:46:51.043Z,45.40
2018-07-07T20:49:20.125Z,45.60
2018-07-07T20:51:49.184Z,45.90
2018-07-07T20:54:18.276Z,45.90
2018-07-07T20:56:47.334Z,46.40
2018-07-07T20:59:16.421Z,46.60
2018-07-07T21:01:45.520Z,46.80
2018-07-07T21:04:14.589Z,47.60
2018-07-07T21:09:12.388Z,47.20
2018-07-07T21:11:41.505Z,47.40
2018-07-07T21:14:10.628Z,47.70
2018-07-07T21:16:39.683Z,47.80
2018-07-07T21:19:08.767Z,48.00
2018-07-07T21:21:37.815Z,48.20
2018-07-07T21:24:06.923Z,48.70
2018-07-07T21:26:35.999Z,48.90
2018-07-07T21:29:05.078Z,49.20
2018-07-07T21:31:34.232Z,49.60
2018-07-07T21:34:03.315Z,50.10
2018-07-07T21:36:32.376Z,51.10
2018-07-07T21:39:01.456Z,50.90
2018-07-07T21:41:30.511Z,51.10
2018-07-07T21:43:59.571Z,51.30
2018-07-07T21:46:28.635Z,52.40
2018-07-07T21:48:57.695Z,52.10
2018-07-07T21:51:26.744Z,52.20
2018-07-07T21:53:55.961Z,52.40
2018-07-07T21:56:24.916Z,52.80
2018-07-07T21:58:59.402Z,53.30
2018-07-07T22:01:58.391Z,53.70
2018-07-07T22:04:33.527Z,53.90
2018-07-07T22:07:10.355Z,54.40
2018-07-07T22:09:39.685Z,54.70
2018-07-07T22:12:08.751Z,55.00
2018-07-07T22:14:37.819Z,55.20
2018-07-07T22:19:36.188Z,55.80
2018-07-07T22:22:07.395Z,56.00
2018-07-07T22:24:36.729Z,56.20
2018-07-07T22:27:06.834Z,56.40
2018-07-07T22:29:36.044Z,56.70
2018-07-07T22:32:06.477Z,57.00
2018-07-07T22:34:37.722Z,56.80
2018-07-07T22:37:07.087Z,57.00
2018-07-07T22:39:38.268Z,57.10
2018-07-07T22:42:09.733Z,57.50
2018-07-07T22:44:39.726Z,57.50
2018-07-07T22:47:08.778Z,57.70
2018-07-07T22:52:07.721Z,58.10
2018-07-07T22:54:36.794Z,58.10
2018-07-07T22:59:34.582Z,58.50
2018-07-07T23:04:32.393Z,58.40
2018-07-07T23:07:01.460Z,58.00
2018-07-07T23:09:30.527Z,57.60
2018-07-07T23:11:59.575Z,57.60
2018-07-07T23:14:28.651Z,58.10
2018-07-07T23:19:27.360Z,58.30
2018-07-07T23:21:58.132Z,58.50
2018-07-07T23:24:27.183Z,58.30
2018-07-07T23:26:56.254Z,58.20
2018-07-07T23:29:25.295Z,57.80
2018-07-07T23:31:54.372Z,57.60
2018-07-07T23:36:52.134Z,57.50
2018-07-07T23:41:49.935Z,56.80
2018-07-07T23:51:45.041Z,56.00
2018-07-07T23:54:14.103Z,56.60
2018-07-07T23:56:43.207Z,56.50
2018-07-07T23:59:12.250Z,56.70
